sensor_id;sensor_type;location;lat;lon;timestamp;pressure;altitude;pressure_sealevel;temperature;humidity
57644;BME280;43474;46.510;6.686;2023-03-25T00:01:32;96514.19;;;7.07;100.00
57644;BME280;43474;46.510;6.686;2023-03-25T00:04:01;96505.03;;;7.10;100.00
57644;BME280;43474;46.510;6.686;2023-03-25T00:06:29;96516.38;;;7.10;100.00
57644;BME280;43474;46.510;6.686;2023-03-25T00:08:56;96522.28;;;7.12;100.00
57644;BME280;43474;46.510;6.686;2023-03-25T00:11:22;96513.41;;;7.00;100.00
57644;BME280;43474;46.510;6.686;2023-03-25T00:13:48;96509.00;;;6.94;100.00
57644;BME280;43474;46.510;6.686;2023-03-25T00:16:15;96512.81;;;6.98;100.00
57644;BME280;43474;46.510;6.686;2023-03-25T00:18:40;96525.63;;;6.88;100.00
57644;BME280;43474;46.510;6.686;2023-03-25T00:21:07;96524.63;;;6.89;100.00
57644;BME280;43474;46.510;6.686;2023-03-25T00:23:35;96500.19;;;6.68;100.00
57644;BME280;43474;46.510;6.686;2023-03-25T00:26:01;96505.06;;;6.65;100.00
57644;BME280;43474;46.510;6.686;2023-03-25T00:28:29;96502.09;;;6.48;100.00
57644;BME280;43474;46.510;6.686;2023-03-25T00:31:09;96498.50;;;6.42;100.00
57644;BME280;43474;46.510;6.686;2023-03-25T00:33:35;96502.09;;;6.48;100.00
57644;BME280;43474;46.510;6.686;2023-03-25T00:36:02;96507.75;;;6.58;100.00
57644;BME280;43474;46.510;6.686;2023-03-25T00:38:31;96504.63;;;6.74;100.00
57644;BME280;43474;46.510;6.686;2023-03-25T00:41:17;96503.09;;;6.98;100.00
57644;BME280;43474;46.510;6.686;2023-03-25T00:43:51;96481.38;;;7.03;100.00
57644;BME280;43474;46.510;6.686;2023-03-25T00:46:17;96478.53;;;7.05;100.00
57644;BME280;43474;46.510;6.686;2023-03-25T00:48:42;96485.22;;;7.07;100.00
57644;BME280;43474;46.510;6.686;2023-03-25T00:51:08;96486.97;;;7.13;100.00
57644;BME280;43474;46.510;6.686;2023-03-25T00:53:38;96489.63;;;7.13;100.00
57644;BME280;43474;46.510;6.686;2023-03-25T00:56:04;96472.06;;;7.00;100.00
57644;BME280;43474;46.510;6.686;2023-03-25T00:58:29;96459.31;;;6.97;100.00
57644;BME280;43474;46.510;6.686;2023-03-25T01:00:55;96461.78;;;6.92;100.00
57644;BME280;43474;46.510;6.686;2023-03-25T01:03:25;96452.28;;;6.85;100.00
57644;BME280;43474;46.510;6.686;2023-03-25T01:05:53;96458.38;;;6.85;100.00
57644;BME280;43474;46.510;6.686;2023-03-25T01:08:21;96464.53;;;6.72;100.00
57644;BME280;43474;46.510;6.686;2023-03-25T01:10:55;96463.97;;;6.64;100.00
57644;BME280;43474;46.510;6.686;2023-03-25T01:13:22;96451.38;;;6.66;100.00
57644;BME280;43474;46.510;6.686;2023-03-25T01:15:48;96440.50;;;6.62;100.00
57644;BME280;43474;46.510;6.686;2023-03-25T01:18:14;96439.25;;;6.65;100.00
57644;BME280;43474;46.510;6.686;2023-03-25T01:20:40;96432.72;;;6.74;100.00
57644;BME280;43474;46.510;6.686;2023-03-25T01:23:06;96440.53;;;6.87;100.00
57644;BME280;43474;46.510;6.686;2023-03-25T01:25:34;96441.63;;;7.05;100.00
57644;BME280;43474;46.510;6.686;2023-03-25T01:28:01;96441.16;;;7.14;100.00
57644;BME280;43474;46.510;6.686;2023-03-25T01:30:27;96426.25;;;7.02;100.00
57644;BME280;43474;46.510;6.686;2023-03-25T01:32:52;96451.53;;;7.09;100.00
57644;BME280;43474;46.510;6.686;2023-03-25T01:35:18;96466.72;;;7.14;100.00
57644;BME280;43474;46.510;6.686;2023-03-25T01:37:43;96458.41;;;7.10;100.00
57644;BME280;43474;46.510;6.686;2023-03-25T01:40:22;96465.97;;;7.07;100.00
57644;BME280;43474;46.510;6.686;2023-03-25T01:42:50;96466.63;;;6.95;100.00
57644;BME280;43474;46.510;6.686;2023-03-25T01:45:23;96471.34;;;6.87;100.00
57644;BME280;43474;46.510;6.686;2023-03-25T01:48:13;96457.78;;;6.83;100.00
57644;BME280;43474;46.510;6.686;2023-03-25T01:50:45;96468.81;;;6.67;100.00
57644;BME280;43474;46.510;6.686;2023-03-25T01:53:13;96448.22;;;6.51;100.00
57644;BME280;43474;46.510;6.686;2023-03-25T01:55:42;96458.56;;;6.52;100.00
57644;BME280;43474;46.510;6.686;2023-03-25T01:58:10;96440.59;;;6.36;100.00
57644;BME280;43474;46.510;6.686;2023-03-25T02:00:39;96458.78;;;6.44;100.00
57644;BME280;43474;46.510;6.686;2023-03-25T02:03:04;96432.06;;;6.47;100.00
57644;BME280;43474;46.510;6.686;2023-03-25T02:05:41;96427.16;;;6.51;100.00
57644;BME280;43474;46.510;6.686;2023-03-25T02:08:08;96425.34;;;6.51;100.00
57644;BME280;43474;46.510;6.686;2023-03-25T02:10:35;96416.78;;;6.62;100.00
57644;BME280;43474;46.510;6.686;2023-03-25T02:13:03;96420.41;;;6.68;100.00
57644;BME280;43474;46.510;6.686;2023-03-25T02:15:57;96404.16;;;6.71;100.00
57644;BME280;43474;46.510;6.686;2023-03-25T02:27:33;96414.56;;;6.91;100.00
57644;BME280;43474;46.510;6.686;2023-03-25T02:32:46;96415.28;;;7.05;100.00
57644;BME280;43474;46.510;6.686;2023-03-25T02:38:18;96426.22;;;7.08;100.00
57644;BME280;43474;46.510;6.686;2023-03-25T02:43:44;96441.31;;;7.19;100.00
57644;BME280;43474;46.510;6.686;2023-03-25T02:46:17;96454.34;;;7.14;100.00
57644;BME280;43474;46.510;6.686;2023-03-25T02:49:14;96448.72;;;7.04;100.00
57644;BME280;43474;46.510;6.686;2023-03-25T02:52:05;96438.88;;;6.93;100.00
57644;BME280;43474;46.510;6.686;2023-03-25T02:54:35;96444.19;;;6.86;100.00
57644;BME280;43474;46.510;6.686;2023-03-25T02:57:04;96442.56;;;6.85;100.00
57644;BME280;43474;46.510;6.686;2023-03-25T02:59:33;96441.75;;;6.85;100.00
57644;BME280;43474;46.510;6.686;2023-03-25T03:02:05;96442.19;;;6.82;100.00
57644;BME280;43474;46.510;6.686;2023-03-25T03:04:43;96429.84;;;6.76;100.00
57644;BME280;43474;46.510;6.686;2023-03-25T03:07:10;96427.84;;;6.71;100.00
57644;BME280;43474;46.510;6.686;2023-03-25T03:09:44;96420.19;;;6.69;100.00
57644;BME280;43474;46.510;6.686;2023-03-25T03:17:56;96438.13;;;6.47;100.00
57644;BME280;43474;46.510;6.686;2023-03-25T03:20:39;96435.63;;;6.59;100.00
57644;BME280;43474;46.510;6.686;2023-03-25T03:23:27;96426.72;;;6.60;100.00
57644;BME280;43474;46.510;6.686;2023-03-25T03:28:32;96429.50;;;6.72;100.00
57644;BME280;43474;46.510;6.686;2023-03-25T03:31:04;96434.88;;;6.84;100.00
57644;BME280;43474;46.510;6.686;2023-03-25T03:33:50;96427.63;;;6.79;100.00
57644;BME280;43474;46.510;6.686;2023-03-25T03:36:21;96444.56;;;6.90;100.00
57644;BME280;43474;46.510;6.686;2023-03-25T03:38:53;96433.22;;;6.89;100.00
57644;BME280;43474;46.510;6.686;2023-03-25T03:41:24;96430.66;;;6.76;100.00
57644;BME280;43474;46.510;6.686;2023-03-25T03:44:05;96436.31;;;6.86;100.00
57644;BME280;43474;46.510;6.686;2023-03-25T03:46:58;96431.94;;;6.98;100.00
57644;BME280;43474;46.510;6.686;2023-03-25T03:49:34;96435.13;;;7.07;100.00
57644;BME280;43474;46.510;6.686;2023-03-25T03:52:12;96425.19;;;7.09;100.00
57644;BME280;43474;46.510;6.686;2023-03-25T03:54:51;96410.97;;;7.10;100.00
57644;BME280;43474;46.510;6.686;2023-03-25T04:02:38;96434.19;;;7.27;100.00
57644;BME280;43474;46.510;6.686;2023-03-25T04:05:07;96427.28;;;7.25;100.00
57644;BME280;43474;46.510;6.686;2023-03-25T04:08:01;96424.16;;;7.10;100.00
57644;BME280;43474;46.510;6.686;2023-03-25T04:10:45;96434.88;;;7.15;100.00
57644;BME280;43474;46.510;6.686;2023-03-25T04:13:18;96441.00;;;7.09;100.00
57644;BME280;43474;46.510;6.686;2023-03-25T04:15:45;96428.47;;;7.05;100.00
57644;BME280;43474;46.510;6.686;2023-03-25T04:18:11;96415.22;;;6.86;100.00
57644;BME280;43474;46.510;6.686;2023-03-25T04:20:37;96421.16;;;6.75;100.00
57644;BME280;43474;46.510;6.686;2023-03-25T04:23:10;96431.91;;;6.73;100.00
57644;BME280;43474;46.510;6.686;2023-03-25T04:25:41;96439.88;;;6.60;100.00
57644;BME280;43474;46.510;6.686;2023-03-25T04:28:08;96420.72;;;6.40;100.00
57644;BME280;43474;46.510;6.686;2023-03-25T04:30:39;96440.53;;;6.49;100.00
57644;BME280;43474;46.510;6.686;2023-03-25T04:33:05;96433.91;;;6.40;100.00
57644;BME280;43474;46.510;6.686;2023-03-25T04:35:31;96433.06;;;6.46;100.00
57644;BME280;43474;46.510;6.686;2023-03-25T04:37:57;96436.03;;;6.63;100.00
57644;BME280;43474;46.510;6.686;2023-03-25T04:40:24;96460.03;;;6.80;100.00
57644;BME280;43474;46.510;6.686;2023-03-25T04:42:50;96464.28;;;6.81;100.00
57644;BME280;43474;46.510;6.686;2023-03-25T04:45:18;96451.72;;;6.76;100.00
57644;BME280;43474;46.510;6.686;2023-03-25T04:47:45;96473.72;;;6.95;100.00
57644;BME280;43474;46.510;6.686;2023-03-25T04:50:21;96468.44;;;6.95;100.00
57644;BME280;43474;46.510;6.686;2023-03-25T04:52:50;96476.31;;;7.02;100.00
57644;BME280;43474;46.510;6.686;2023-03-25T04:55:18;96468.41;;;7.02;100.00
57644;BME280;43474;46.510;6.686;2023-03-25T04:57:45;96468.03;;;6.98;100.00
57644;BME280;43474;46.510;6.686;2023-03-25T05:00:12;96465.19;;;6.99;100.00
57644;BME280;43474;46.510;6.686;2023-03-25T05:02:43;96469.25;;;6.95;100.00
57644;BME280;43474;46.510;6.686;2023-03-25T05:05:11;96475.53;;;6.94;100.00
57644;BME280;43474;46.510;6.686;2023-03-25T05:07:51;96489.44;;;7.08;100.00
57644;BME280;43474;46.510;6.686;2023-03-25T05:10:22;96505.47;;;7.07;100.00
57644;BME280;43474;46.510;6.686;2023-03-25T05:12:49;96490.94;;;6.97;100.00
57644;BME280;43474;46.510;6.686;2023-03-25T05:15:15;96503.25;;;7.04;100.00
57644;BME280;43474;46.510;6.686;2023-03-25T05:17:43;96500.50;;;6.92;100.00
57644;BME280;43474;46.510;6.686;2023-03-25T05:20:10;96502.31;;;6.91;100.00
57644;BME280;43474;46.510;6.686;2023-03-25T05:22:37;96495.88;;;6.87;100.00
57644;BME280;43474;46.510;6.686;2023-03-25T05:25:07;96493.81;;;6.89;100.00
57644;BME280;43474;46.510;6.686;2023-03-25T05:27:34;96494.44;;;6.91;100.00
57644;BME280;43474;46.510;6.686;2023-03-25T05:30:00;96506.41;;;6.87;100.00
57644;BME280;43474;46.510;6.686;2023-03-25T05:32:28;96489.63;;;6.75;100.00
57644;BME280;43474;46.510;6.686;2023-03-25T05:35:05;96512.69;;;6.80;100.00
57644;BME280;43474;46.510;6.686;2023-03-25T05:37:32;96496.75;;;6.68;100.00
57644;BME280;43474;46.510;6.686;2023-03-25T05:39:57;96490.88;;;6.72;100.00
57644;BME280;43474;46.510;6.686;2023-03-25T05:42:23;96499.97;;;6.70;100.00
57644;BME280;43474;46.510;6.686;2023-03-25T05:44:50;96479.31;;;6.73;100.00
57644;BME280;43474;46.510;6.686;2023-03-25T05:47:17;96485.16;;;6.76;100.00
57644;BME280;43474;46.510;6.686;2023-03-25T05:49:45;96483.16;;;6.71;100.00
57644;BME280;43474;46.510;6.686;2023-03-25T05:52:11;96488.25;;;6.72;100.00
57644;BME280;43474;46.510;6.686;2023-03-25T05:54:36;96468.03;;;6.66;100.00
57644;BME280;43474;46.510;6.686;2023-03-25T05:57:06;96478.72;;;6.71;100.00
57644;BME280;43474;46.510;6.686;2023-03-25T05:59:33;96488.06;;;6.67;100.00
57644;BME280;43474;46.510;6.686;2023-03-25T06:01:59;96492.31;;;6.68;100.00
57644;BME280;43474;46.510;6.686;2023-03-25T06:04:24;96489.50;;;6.63;100.00
57644;BME280;43474;46.510;6.686;2023-03-25T06:06:50;96487.25;;;6.67;100.00
57644;BME280;43474;46.510;6.686;2023-03-25T06:09:15;96488.06;;;6.61;100.00
57644;BME280;43474;46.510;6.686;2023-03-25T06:11:42;96482.00;;;6.67;100.00
57644;BME280;43474;46.510;6.686;2023-03-25T06:14:08;96479.13;;;6.68;100.00
57644;BME280;43474;46.510;6.686;2023-03-25T06:16:34;96487.59;;;6.77;100.00
57644;BME280;43474;46.510;6.686;2023-03-25T06:18:59;96467.34;;;6.71;100.00
57644;BME280;43474;46.510;6.686;2023-03-25T06:21:27;96460.91;;;6.67;100.00
57644;BME280;43474;46.510;6.686;2023-03-25T06:23:53;96464.13;;;6.69;100.00
57644;BME280;43474;46.510;6.686;2023-03-25T06:26:21;96472.97;;;6.88;100.00
57644;BME280;43474;46.510;6.686;2023-03-25T06:28:47;96477.97;;;6.96;100.00
57644;BME280;43474;46.510;6.686;2023-03-25T06:31:24;96464.41;;;6.92;100.00
57644;BME280;43474;46.510;6.686;2023-03-25T06:33:51;96469.22;;;7.02;100.00
57644;BME280;43474;46.510;6.686;2023-03-25T06:36:18;96472.06;;;7.00;100.00
57644;BME280;43474;46.510;6.686;2023-03-25T06:38:48;96476.66;;;7.12;100.00
57644;BME280;43474;46.510;6.686;2023-03-25T06:41:16;96464.28;;;7.12;100.00
57644;BME280;43474;46.510;6.686;2023-03-25T06:43:47;96447.41;;;7.20;100.00
57644;BME280;43474;46.510;6.686;2023-03-25T06:46:13;96451.00;;;7.25;100.00
57644;BME280;43474;46.510;6.686;2023-03-25T06:48:39;96439.78;;;7.37;100.00
57644;BME280;43474;46.510;6.686;2023-03-25T06:51:06;96426.88;;;7.29;100.00
57644;BME280;43474;46.510;6.686;2023-03-25T06:53:31;96415.28;;;7.30;100.00
57644;BME280;43474;46.510;6.686;2023-03-25T06:55:57;96459.53;;;7.53;100.00
57644;BME280;43474;46.510;6.686;2023-03-25T06:58:23;96453.31;;;7.40;100.00
57644;BME280;43474;46.510;6.686;2023-03-25T07:00:53;96459.41;;;7.41;100.00
57644;BME280;43474;46.510;6.686;2023-03-25T07:03:19;96441.66;;;7.30;100.00
57644;BME280;43474;46.510;6.686;2023-03-25T07:05:46;96462.03;;;7.41;100.00
57644;BME280;43474;46.510;6.686;2023-03-25T07:08:12;96452.56;;;7.33;100.00
57644;BME280;43474;46.510;6.686;2023-03-25T07:10:38;96455.69;;;7.23;100.00
57644;BME280;43474;46.510;6.686;2023-03-25T07:13:03;96465.81;;;7.27;100.00
57644;BME280;43474;46.510;6.686;2023-03-25T07:15:29;96460.25;;;7.35;100.00
57644;BME280;43474;46.510;6.686;2023-03-25T07:17:54;96446.28;;;7.34;100.00
57644;BME280;43474;46.510;6.686;2023-03-25T07:20:20;96461.63;;;7.44;100.00
57644;BME280;43474;46.510;6.686;2023-03-25T07:22:45;96445.91;;;7.31;100.00
57644;BME280;43474;46.510;6.686;2023-03-25T07:25:11;96445.69;;;7.32;100.00
57644;BME280;43474;46.510;6.686;2023-03-25T07:27:36;96449.19;;;7.51;100.00
57644;BME280;43474;46.510;6.686;2023-03-25T07:30:03;96446.34;;;7.53;100.00
57644;BME280;43474;46.510;6.686;2023-03-25T07:32:29;96461.50;;;7.57;100.00
57644;BME280;43474;46.510;6.686;2023-03-25T07:34:55;96431.69;;;7.57;100.00
57644;BME280;43474;46.510;6.686;2023-03-25T07:37:20;96453.47;;;7.70;100.00
57644;BME280;43474;46.510;6.686;2023-03-25T07:39:46;96457.19;;;7.63;100.00
57644;BME280;43474;46.510;6.686;2023-03-25T07:42:11;96432.78;;;7.49;100.00
57644;BME280;43474;46.510;6.686;2023-03-25T07:44:37;96437.47;;;7.65;100.00
57644;BME280;43474;46.510;6.686;2023-03-25T07:47:02;96448.03;;;7.65;100.00
57644;BME280;43474;46.510;6.686;2023-03-25T07:49:28;96453.16;;;7.60;100.00
57644;BME280;43474;46.510;6.686;2023-03-25T07:51:53;96451.31;;;7.61;100.00
57644;BME280;43474;46.510;6.686;2023-03-25T07:54:19;96453.31;;;7.65;100.00
57644;BME280;43474;46.510;6.686;2023-03-25T07:56:46;96457.75;;;7.71;100.00
57644;BME280;43474;46.510;6.686;2023-03-25T07:59:12;96454.72;;;7.68;100.00
57644;BME280;43474;46.510;6.686;2023-03-25T08:01:37;96459.78;;;7.69;100.00
57644;BME280;43474;46.510;6.686;2023-03-25T08:04:03;96460.66;;;7.63;100.00
57644;BME280;43474;46.510;6.686;2023-03-25T08:06:29;96464.31;;;7.62;100.00
57644;BME280;43474;46.510;6.686;2023-03-25T08:08:54;96457.19;;;7.63;100.00
57644;BME280;43474;46.510;6.686;2023-03-25T08:11:20;96482.47;;;7.70;100.00
57644;BME280;43474;46.510;6.686;2023-03-25T08:13:46;96472.81;;;7.64;100.00
57644;BME280;43474;46.510;6.686;2023-03-25T08:16:13;96483.31;;;7.71;100.00
57644;BME280;43474;46.510;6.686;2023-03-25T08:18:39;96460.00;;;7.68;100.00
57644;BME280;43474;46.510;6.686;2023-03-25T08:21:10;96473.19;;;7.68;100.00
57644;BME280;43474;46.510;6.686;2023-03-25T08:23:36;96466.63;;;7.77;100.00
57644;BME280;43474;46.510;6.686;2023-03-25T08:26:02;96480.91;;;7.88;100.00
57644;BME280;43474;46.510;6.686;2023-03-25T08:28:30;96458.84;;;7.82;100.00
57644;BME280;43474;46.510;6.686;2023-03-25T08:30:56;96482.91;;;7.92;100.00
57644;BME280;43474;46.510;6.686;2023-03-25T08:33:24;96491.03;;;7.91;100.00
57644;BME280;43474;46.510;6.686;2023-03-25T08:35:59;96484.13;;;7.90;100.00
57644;BME280;43474;46.510;6.686;2023-03-25T08:38:27;96481.56;;;7.83;100.00
57644;BME280;43474;46.510;6.686;2023-03-25T08:40:57;96487.41;;;7.85;100.00
57644;BME280;43474;46.510;6.686;2023-03-25T08:43:24;96467.25;;;7.72;100.00
57644;BME280;43474;46.510;6.686;2023-03-25T08:45:49;96481.63;;;7.76;100.00
57644;BME280;43474;46.510;6.686;2023-03-25T08:48:15;96497.88;;;7.73;100.00
57644;BME280;43474;46.510;6.686;2023-03-25T08:50:40;96491.22;;;7.71;100.00
57644;BME280;43474;46.510;6.686;2023-03-25T08:53:06;96491.00;;;7.72;100.00
57644;BME280;43474;46.510;6.686;2023-03-25T08:55:32;96524.91;;;7.69;100.00
57644;BME280;43474;46.510;6.686;2023-03-25T08:58:02;96535.69;;;7.67;100.00
57644;BME280;43474;46.510;6.686;2023-03-25T09:00:28;96521.94;;;7.59;100.00
57644;BME280;43474;46.510;6.686;2023-03-25T09:02:53;96521.38;;;7.57;100.00
57644;BME280;43474;46.510;6.686;2023-03-25T09:05:19;96529.22;;;7.63;100.00
57644;BME280;43474;46.510;6.686;2023-03-25T09:07:44;96519.16;;;7.54;100.00
57644;BME280;43474;46.510;6.686;2023-03-25T09:10:10;96544.66;;;7.60;100.00
57644;BME280;43474;46.510;6.686;2023-03-25T09:12:37;96525.69;;;7.44;100.00
57644;BME280;43474;46.510;6.686;2023-03-25T09:15:03;96528.78;;;7.41;100.00
57644;BME280;43474;46.510;6.686;2023-03-25T09:17:29;96513.25;;;7.27;100.00
57644;BME280;43474;46.510;6.686;2023-03-25T09:19:55;96534.47;;;7.38;100.00
57644;BME280;43474;46.510;6.686;2023-03-25T09:22:21;96522.91;;;7.39;100.00
57644;BME280;43474;46.510;6.686;2023-03-25T09:24:46;96526.81;;;7.30;100.00
57644;BME280;43474;46.510;6.686;2023-03-25T09:27:12;96540.59;;;7.32;100.00
57644;BME280;43474;46.510;6.686;2023-03-25T09:29:37;96534.72;;;7.30;100.00
57644;BME280;43474;46.510;6.686;2023-03-25T09:32:03;96528.69;;;7.23;100.00
57644;BME280;43474;46.510;6.686;2023-03-25T09:34:29;96538.38;;;7.29;100.00
57644;BME280;43474;46.510;6.686;2023-03-25T09:36:55;96521.19;;;7.20;100.00
57644;BME280;43474;46.510;6.686;2023-03-25T09:39:21;96535.91;;;7.34;100.00
57644;BME280;43474;46.510;6.686;2023-03-25T09:44:24;96525.50;;;7.46;100.00
57644;BME280;43474;46.510;6.686;2023-03-25T09:46:53;96523.88;;;7.45;100.00
57644;BME280;43474;46.510;6.686;2023-03-25T09:49:22;96517.41;;;7.41;100.00
57644;BME280;43474;46.510;6.686;2023-03-25T09:51:51;96529.28;;;7.57;100.00
57644;BME280;43474;46.510;6.686;2023-03-25T09:54:31;96534.16;;;7.53;100.00
57644;BME280;43474;46.510;6.686;2023-03-25T09:57:13;96541.59;;;7.63;100.00
57644;BME280;43474;46.510;6.686;2023-03-25T09:59:44;96533.28;;;7.66;100.00
57644;BME280;43474;46.510;6.686;2023-03-25T10:02:31;96533.94;;;7.80;100.00
57644;BME280;43474;46.510;6.686;2023-03-25T10:05:15;96541.66;;;7.81;100.00
57644;BME280;43474;46.510;6.686;2023-03-25T10:24:43;96530.78;;;8.58;100.00
57644;BME280;43474;46.510;6.686;2023-03-25T10:27:18;96529.38;;;8.73;100.00
57644;BME280;43474;46.510;6.686;2023-03-25T10:29:56;96516.31;;;8.78;100.00
57644;BME280;43474;46.510;6.686;2023-03-25T10:32:41;96530.31;;;8.79;100.00
57644;BME280;43474;46.510;6.686;2023-03-25T10:35:27;96531.06;;;8.68;100.00
57644;BME280;43474;46.510;6.686;2023-03-25T10:37:58;96532.00;;;8.73;100.00
57644;BME280;43474;46.510;6.686;2023-03-25T10:40:34;96526.97;;;8.72;100.00
57644;BME280;43474;46.510;6.686;2023-03-25T10:45:40;96534.88;;;8.90;100.00
57644;BME280;43474;46.510;6.686;2023-03-25T10:48:17;96537.19;;;8.98;100.00
57644;BME280;43474;46.510;6.686;2023-03-25T10:50:45;96538.91;;;9.23;100.00
57644;BME280;43474;46.510;6.686;2023-03-25T10:53:23;96530.88;;;9.29;100.00
57644;BME280;43474;46.510;6.686;2023-03-25T10:56:01;96537.72;;;9.49;100.00
57644;BME280;43474;46.510;6.686;2023-03-25T10:58:29;96547.28;;;9.50;100.00
57644;BME280;43474;46.510;6.686;2023-03-25T11:00:55;96532.03;;;9.33;100.00
57644;BME280;43474;46.510;6.686;2023-03-25T11:03:29;96534.34;;;9.30;100.00
57644;BME280;43474;46.510;6.686;2023-03-25T11:05:56;96522.78;;;9.13;100.00
57644;BME280;43474;46.510;6.686;2023-03-25T11:08:21;96542.47;;;9.28;100.00
57644;BME280;43474;46.510;6.686;2023-03-25T11:10:49;96560.16;;;9.46;100.00
57644;BME280;43474;46.510;6.686;2023-03-25T11:13:26;96557.91;;;9.31;100.00
57644;BME280;43474;46.510;6.686;2023-03-25T11:15:54;96576.66;;;9.30;100.00
57644;BME280;43474;46.510;6.686;2023-03-25T11:18:37;96564.25;;;9.42;100.00
57644;BME280;43474;46.510;6.686;2023-03-25T11:21:08;96559.25;;;9.64;100.00
57644;BME280;43474;46.510;6.686;2023-03-25T11:23:42;96580.25;;;9.89;100.00
57644;BME280;43474;46.510;6.686;2023-03-25T11:26:18;96587.53;;;10.05;100.00
57644;BME280;43474;46.510;6.686;2023-03-25T11:28:49;96572.66;;;9.93;100.00
57644;BME280;43474;46.510;6.686;2023-03-25T11:31:21;96589.94;;;10.07;100.00
57644;BME280;43474;46.510;6.686;2023-03-25T11:41:39;96579.81;;;12.56;100.00
57644;BME280;43474;46.510;6.686;2023-03-25T11:44:04;96581.22;;;12.08;100.00
57644;BME280;43474;46.510;6.686;2023-03-25T11:46:32;96608.81;;;12.74;100.00
57644;BME280;43474;46.510;6.686;2023-03-25T11:49:08;96610.38;;;11.86;100.00
57644;BME280;43474;46.510;6.686;2023-03-25T11:51:36;96599.28;;;11.60;100.00
57644;BME280;43474;46.510;6.686;2023-03-25T11:54:07;96578.28;;;11.30;100.00
57644;BME280;43474;46.510;6.686;2023-03-25T11:56:34;96588.09;;;12.04;100.00
57644;BME280;43474;46.510;6.686;2023-03-25T11:59:01;96568.44;;;12.38;100.00
57644;BME280;43474;46.510;6.686;2023-03-25T12:01:30;96572.75;;;12.83;100.00
57644;BME280;43474;46.510;6.686;2023-03-25T12:04:14;96563.56;;;13.67;100.00
57644;BME280;43474;46.510;6.686;2023-03-25T12:07:05;96561.91;;;13.88;100.00
57644;BME280;43474;46.510;6.686;2023-03-25T12:09:35;96575.16;;;13.78;100.00
57644;BME280;43474;46.510;6.686;2023-03-25T12:17:53;96581.41;;;12.96;97.54
57644;BME280;43474;46.510;6.686;2023-03-25T12:23:00;96589.75;;;13.75;100.00
57644;BME280;43474;46.510;6.686;2023-03-25T12:28:22;96583.53;;;12.93;100.00
57644;BME280;43474;46.510;6.686;2023-03-25T12:36:35;96563.19;;;11.48;100.00
57644;BME280;43474;46.510;6.686;2023-03-25T12:39:22;96564.38;;;11.69;100.00
57644;BME280;43474;46.510;6.686;2023-03-25T12:42:03;96582.88;;;11.80;100.00
57644;BME280;43474;46.510;6.686;2023-03-25T12:44:57;96574.72;;;11.99;100.00
57644;BME280;43474;46.510;6.686;2023-03-25T12:47:42;96577.25;;;12.83;100.00
57644;BME280;43474;46.510;6.686;2023-03-25T12:50:20;96567.94;;;13.51;100.00
57644;BME280;43474;46.510;6.686;2023-03-25T12:52:59;96571.94;;;13.27;100.00
57644;BME280;43474;46.510;6.686;2023-03-25T13:01:02;96568.53;;;13.85;100.00
57644;BME280;43474;46.510;6.686;2023-03-25T13:06:41;96563.78;;;13.60;100.00
57644;BME280;43474;46.510;6.686;2023-03-25T13:09:20;96563.47;;;13.30;100.00
57644;BME280;43474;46.510;6.686;2023-03-25T13:12:02;96553.72;;;14.37;100.00
57644;BME280;43474;46.510;6.686;2023-03-25T13:14:34;96556.00;;;14.55;100.00
57644;BME280;43474;46.510;6.686;2023-03-25T13:17:04;96538.91;;;14.51;100.00
57644;BME280;43474;46.510;6.686;2023-03-25T13:19:34;96552.81;;;14.21;99.09
57644;BME280;43474;46.510;6.686;2023-03-25T13:22:16;96552.03;;;13.83;100.00
57644;BME280;43474;46.510;6.686;2023-03-25T13:24:48;96535.56;;;13.91;100.00
57644;BME280;43474;46.510;6.686;2023-03-25T13:27:18;96547.50;;;13.84;100.00
57644;BME280;43474;46.510;6.686;2023-03-25T13:29:50;96559.88;;;13.68;100.00
57644;BME280;43474;46.510;6.686;2023-03-25T13:32:31;96559.44;;;13.05;100.00
57644;BME280;43474;46.510;6.686;2023-03-25T13:35:03;96557.91;;;12.87;100.00
57644;BME280;43474;46.510;6.686;2023-03-25T13:37:39;96545.28;;;13.00;100.00
57644;BME280;43474;46.510;6.686;2023-03-25T13:40:25;96537.84;;;13.02;100.00
57644;BME280;43474;46.510;6.686;2023-03-25T13:43:10;96522.94;;;13.01;100.00
57644;BME280;43474;46.510;6.686;2023-03-25T13:46:07;96528.34;;;13.28;100.00
57644;BME280;43474;46.510;6.686;2023-03-25T13:48:48;96520.03;;;13.24;100.00
57644;BME280;43474;46.510;6.686;2023-03-25T13:51:17;96511.72;;;13.20;100.00
57644;BME280;43474;46.510;6.686;2023-03-25T13:53:56;96527.22;;;13.24;100.00
57644;BME280;43474;46.510;6.686;2023-03-25T14:04:25;96517.53;;;12.68;95.59
57644;BME280;43474;46.510;6.686;2023-03-25T14:07:14;96511.69;;;12.50;94.83
57644;BME280;43474;46.510;6.686;2023-03-25T14:12:44;96504.13;;;13.29;93.42
57644;BME280;43474;46.510;6.686;2023-03-25T14:15:19;96518.06;;;13.41;95.34
57644;BME280;43474;46.510;6.686;2023-03-25T14:17:46;96511.69;;;13.42;95.49
57644;BME280;43474;46.510;6.686;2023-03-25T14:20:20;96512.38;;;13.28;96.42
57644;BME280;43474;46.510;6.686;2023-03-25T14:22:55;96513.81;;;13.40;94.55
57644;BME280;43474;46.510;6.686;2023-03-25T14:27:58;96518.03;;;13.36;93.78
57644;BME280;43474;46.510;6.686;2023-03-25T14:30:26;96519.03;;;13.30;92.06
57644;BME280;43474;46.510;6.686;2023-03-25T14:32:54;96505.28;;;13.16;91.50
57644;BME280;43474;46.510;6.686;2023-03-25T14:43:32;96547.50;;;13.30;95.96
57644;BME280;43474;46.510;6.686;2023-03-25T14:46:16;96530.47;;;12.43;100.00
57644;BME280;43474;46.510;6.686;2023-03-25T14:48:52;96545.44;;;11.94;100.00
57644;BME280;43474;46.510;6.686;2023-03-25T14:54:41;96525.25;;;11.47;100.00
57644;BME280;43474;46.510;6.686;2023-03-25T14:57:16;96513.03;;;11.18;100.00
57644;BME280;43474;46.510;6.686;2023-03-25T14:59:52;96512.84;;;11.07;100.00
57644;BME280;43474;46.510;6.686;2023-03-25T15:02:23;96515.47;;;11.19;100.00
57644;BME280;43474;46.510;6.686;2023-03-25T15:04:57;96528.66;;;11.14;100.00
57644;BME280;43474;46.510;6.686;2023-03-25T15:12:54;96507.22;;;11.04;100.00